Date,TemperatureHighF,TemperatureAvgF,TemperatureLowF,DewpointHighF,DewpointAvgF,DewpointLowF,HumidityHigh,HumidityAvg,HumidityLow,PressureMaxIn,PressureMinIn,WindSpeedMaxMPH,WindSpeedAvgMPH,GustSpeedMaxMPH,PrecipitationSumIn
2013-1-1,36.0,29.6,21.7,30.1,20.7,0.0,93,72,48,29.06,28.97,8,3,10,0.00
2013-1-2,37.0,19.4,9.9,14.5,5.2,0.0,79,55,33,29.21,29.03,6,1,8,0.00
2013-1-3,41.0,21.2,4.6,16.3,6.8,-5.3,75,55,31,29.21,29.09,0,0,0,0.00
2013-1-4,39.4,29.7,23.4,17.3,13.1,9.4,63,50,34,29.23,29.15,0,0,0,0.00
2013-1-5,30.4,20.9,14.9,19.6,11.4,8.1,78,67,56,29.32,29.23,0,0,0,0.00
2013-1-8,39.2,28.7,24.6,21.7,19.8,0.0,81,71,48,29.29,29.23,1,0,2,0.00
2013-1-9,53.1,37.2,22.8,37.9,26.5,18.5,87,67,41,29.44,29.15,7,2,10,0.05
2013-1-10,45.1,37.4,25.3,32.5,22.7,0.0,89,57,40,29.56,29.21,6,2,8,0.00
2013-1-11,60.6,47.2,39.0,54.1,39.0,0.0,98,75,48,29.21,28.88,9,2,13,0.37
2013-1-12,64.4,56.9,45.0,57.6,53.0,0.0,98,88,65,29.06,28.88,6,2,11,0.00
2013-1-13,67.1,61.3,42.3,57.6,53.8,40.1,97,77,57,29.00,28.79,13,3,18,0.12
2013-1-14,42.3,34.1,26.1,40.2,22.8,15.6,95,64,48,29.35,29.00,12,4,18,0.00
2013-1-15,36.9,30.0,22.3,21.8,17.0,0.0,83,59,43,29.35,29.03,5,2,6,0.00
2013-1-16,37.2,32.8,30.4,29.8,23.0,16.8,88,68,51,29.06,28.88,6,2,10,0.00
2013-1-17,38.1,34.1,28.4,26.1,22.5,10.8,77,63,47,29.21,29.00,10,2,15,0.00
2013-1-18,37.2,28.1,16.5,14.1,8.7,0.0,56,44,32,29.44,29.18,10,4,15,0.00
2013-1-19,56.7,43.9,33.3,20.6,16.6,14.1,46,34,22,29.18,28.79,12,5,24,0.00
2013-1-20,47.1,33.6,23.9,26.7,11.4,4.2,49,40,33,29.15,28.76,14,6,24,0.00
2013-1-21,28.8,20.3,10.2,17.0,5.9,-4.6,68,54,38,29.09,28.94,10,4,16,0.00
2013-1-22,21.0,10.3,5.9,1.7,-6.7,-14.8,59,47,34,29.23,29.09,9,4,13,0.00
2013-1-23,21.2,11.2,0.0,6.5,-8.8,-18.4,66,39,35,29.26,29.06,6,2,11,0.00
2013-1-24,30.2,17.9,0.0,7.9,1.9,-5.7,75,51,30,29.50,29.00,10,2,12,0.00
2013-1-25,26.2,18.0,13.5,13.8,4.3,-4.5,76,55,44,29.44,29.00,6,2,8,0.00
2013-1-26,38.8,24.3,16.9,20.7,12.7,0.0,79,62,39,29.38,29.06,8,2,11,0.00
2013-1-27,40.5,24.6,8.1,16.6,10.1,1.6,77,56,33,29.47,29.23,5,1,6,0.00
2013-1-28,49.5,41.3,30.6,48.9,39.7,17.2,98,94,56,29.23,28.97,7,2,12,0.46
2013-1-29,66.0,57.1,48.2,56.1,50.8,0.0,98,81,58,29.03,28.73,9,3,15,0.08
2013-1-30,67.1,58.1,37.2,57.7,50.1,32.2,95,76,52,28.73,28.23,19,6,28,0.54
2013-1-31,37.0,27.2,20.3,33.7,16.0,6.6,96,63,43,28.85,28.35,16,6,26,0.00
2013-2-1,25.2,16.2,12.9,8.1,1.1,-2.8,63,51,38,29.29,28.85,14,5,18,0.00
2013-2-2,28.2,19.3,9.9,20.7,9.1,-4.3,86,65,52,29.26,28.94,8,2,11,0.00
2013-2-3,32.7,22.8,16.5,20.8,12.5,0.0,88,66,42,29.06,28.85,8,3,13,0.00
2013-2-4,29.3,22.3,14.2,23.1,15.1,0.0,88,74,56,29.06,28.85,5,2,8,0.00
2013-2-5,37.4,28.8,25.3,28.2,22.4,15.2,94,78,52,28.94,28.82,6,1,9,0.00
2013-2-6,48.7,29.8,15.4,25.5,15.9,6.8,89,60,28,29.29,28.94,9,2,13,0.04
2013-2-7,55.6,33.3,13.6,26.3,18.6,6.9,81,58,28,29.26,28.88,6,2,8,0.17
2013-2-8,41.7,33.0,25.7,37.8,26.3,15.3,96,76,62,29.21,28.73,14,5,26,0.12
2013-2-9,42.1,28.5,18.1,18.4,14.0,0.0,77,56,33,29.38,29.21,10,2,15,0.00
2013-2-10,51.3,35.6,15.3,31.4,17.1,0.0,84,52,27,29.29,28.85,10,2,15,0.00
2013-2-11,59.2,46.2,36.3,45.2,31.7,19.0,98,60,29,28.94,28.70,14,6,20,0.00
2013-2-12,47.5,35.9,25.3,22.6,19.3,16.4,74,52,34,29.09,28.91,11,3,17,0.00
2013-2-13,36.7,29.4,22.8,28.5,21.9,17.9,85,74,59,28.91,28.70,7,1,8,0.00
2013-2-14,39.2,34.0,23.4,37.3,29.8,0.0,98,86,67,28.91,28.82,13,3,17,0.04
2013-2-15,41.9,33.0,25.3,29.9,23.8,0.0,89,70,40,29.09,28.91,10,2,14,0.00
2013-2-16,36.5,26.7,19.2,20.0,11.3,3.3,82,55,30,29.06,28.94,8,3,11,0.00
2013-2-17,32.4,19.3,12.2,12.9,5.6,0.5,77,56,34,29.21,28.97,11,4,17,0.00
2013-2-18,48.7,30.4,10.0,25.9,10.6,-1.6,72,46,29,29.23,28.79,11,3,14,0.00
2013-2-19,49.5,34.4,21.0,39.1,24.0,7.6,90,67,37,28.97,28.64,14,6,23,0.29
2013-2-20,27.9,21.0,18.1,15.1,7.9,3.6,77,57,39,29.21,28.97,12,4,16,0.00
2013-2-21,31.1,23.6,20.3,15.6,9.9,0.0,80,56,42,29.32,29.18,7,3,13,0.00
2013-2-22,42.4,32.8,22.6,38.4,24.7,9.2,95,73,55,29.23,28.91,6,2,9,0.00
2013-2-23,47.7,37.4,26.8,32.9,25.7,18.1,88,64,38,28.97,28.85,7,2,11,0.00
2013-2-24,36.5,30.6,26.1,23.9,17.7,13.4,81,59,42,29.12,28.88,8,2,13,0.00
2013-2-25,51.4,36.0,21.9,26.2,17.8,0.0,82,51,27,29.21,29.00,7,1,8,0.00
2013-2-26,40.5,36.0,31.1,37.6,26.9,15.7,96,72,42,29.03,28.53,0,0,0,0.79
2013-2-27,42.6,38.6,34.0,40.9,34.8,0.0,98,86,70,28.67,28.50,0,0,0,0.29
2013-2-28,37.6,34.3,31.5,32.2,29.0,25.8,94,81,74,28.85,28.59,0,0,0,0.00
2013-3-1,34.0,30.2,26.6,27.9,20.4,13.7,86,67,49,29.00,28.85,0,0,0,0.00
2013-3-2,33.1,27.7,24.8,21.7,18.1,11.9,83,68,46,29.00,28.94,0,0,0,0.00
2013-3-3,34.7,26.3,23.0,21.0,13.2,6.8,82,59,40,29.03,28.94,0,0,0,0.04
2013-3-4,45.3,30.5,17.6,15.6,11.4,8.2,69,47,28,29.12,29.00,0,0,0,0.00
2013-3-5,50.9,33.1,20.3,17.3,14.0,10.9,79,50,24,29.06,28.73,0,0,0,0.00
2013-3-9,61.5,51.2,37.0,27.7,22.3,0.0,67,34,24,29.35,29.12,6,2,6,0.00
2013-3-10,74.3,58.5,45.0,31.7,25.6,21.9,50,30,18,29.12,28.91,9,2,10,0.00
2013-3-11,61.7,55.7,44.8,49.3,33.5,23.0,95,49,25,28.91,28.64,9,4,9,0.54
2013-3-12,44.8,38.6,33.3,35.9,27.0,21.4,77,63,49,29.00,28.79,5,4,5,0.04
2013-3-13,33.1,31.1,29.3,29.3,27.4,25.8,93,86,75,28.97,28.91,4,4,4,0.00
2013-4-9,75.4,70.5,66.7,46.0,43.9,41.1,46,39,31,28.97,28.94,4,1,6,0.00
2013-4-10,82.4,67.8,58.8,66.6,55.0,45.1,98,66,37,28.97,28.82,12,2,17,2.12
2013-4-11,68.7,60.2,55.8,62.4,56.8,52.4,98,89,68,28.91,28.56,7,1,10,0.08
2013-4-12,60.1,50.1,43.2,59.5,41.1,29.9,98,72,48,28.85,28.47,10,3,15,0.46
2013-4-13,50.9,45.4,34.7,32.7,29.1,26.5,75,54,42,29.03,28.91,9,4,11,0.00
2013-4-14,69.3,49.7,29.1,37.2,29.1,26.1,96,53,22,29.12,28.97,6,2,8,0.00
2013-4-15,72.5,61.2,48.9,46.3,39.5,29.0,59,45,34,29.06,28.94,11,3,17,0.00
2013-4-16,83.5,64.7,54.0,58.4,51.6,44.6,98,65,34,29.18,29.00,16,4,21,0.21
2013-4-17,73.4,61.0,51.4,53.9,50.5,44.0,98,72,38,29.21,29.06,6,2,7,0.00
2013-4-18,88.5,72.8,57.0,59.1,50.7,40.2,97,53,20,29.06,28.73,12,5,20,0.00
2013-4-19,74.5,51.5,41.2,59.2,33.5,23.4,85,51,34,28.88,28.47,16,5,31,0.12
2013-4-20,49.8,41.8,33.1,28.2,21.2,15.0,69,45,29,29.38,28.88,10,5,18,0.00
2013-4-21,60.8,42.9,25.7,31.0,18.6,12.1,84,43,19,29.56,29.38,9,2,12,0.00
2013-4-22,74.1,53.6,31.6,31.9,24.3,16.8,73,36,19,29.41,29.21,10,2,12,0.00
2013-4-23,79.3,60.7,40.5,33.0,26.8,16.5,52,29,17,29.21,28.91,8,2,13,0.00
2013-4-24,62.4,51.9,34.7,56.4,42.6,30.8,94,73,34,29.18,28.73,14,3,22,0.71
2013-4-25,61.7,44.5,30.2,41.5,30.9,20.9,98,66,25,29.32,29.15,10,2,17,0.04
2013-4-26,68.7,50.0,33.3,45.3,27.7,14.5,96,53,17,29.44,29.32,6,1,7,0.00
2013-4-27,79.7,57.5,34.0,39.3,28.1,19.9,85,41,15,29.38,29.12,7,1,10,0.00
2013-4-28,62.1,54.3,47.5,57.2,47.8,33.5,98,80,52,29.12,28.88,4,1,8,0.83
2013-4-29,68.4,59.7,53.6,56.5,54.0,50.7,98,82,58,29.00,28.88,5,2,7,0.04
2013-4-30,85.3,65.2,48.4,59.5,47.1,38.9,98,61,23,29.15,29.00,6,2,9,0.00
2013-5-1,87.1,69.8,53.1,51.5,44.3,36.3,81,45,20,29.26,29.12,9,2,11,0.00
2013-5-2,86.7,69.1,50.7,38.8,34.2,27.2,51,29,18,29.29,29.18,7,2,12,0.00
2013-5-3,84.7,69.0,51.4,38.6,30.6,25.2,49,26,13,29.21,29.09,9,3,14,0.00
2013-5-4,79.3,64.7,52.0,37.4,30.1,23.0,45,29,15,29.15,29.03,9,3,11,0.00
2013-5-5,81.9,66.0,51.6,35.6,28.5,18.4,49,27,14,29.09,28.97,9,3,14,0.00
2013-5-6,83.5,65.9,54.3,47.2,37.1,17.9,56,36,19,29.03,28.97,8,3,12,0.00
2013-5-7,71.6,63.3,57.2,54.6,50.7,47.0,85,64,43,29.03,28.97,9,3,12,0.00
2013-5-8,84.6,66.6,57.6,53.9,46.4,35.5,83,53,21,29.00,28.91,7,2,10,0.00
2013-5-9,88.3,69.2,55.4,57.6,48.6,31.7,97,58,16,29.00,28.91,8,1,12,0.04
2013-5-10,78.1,65.4,59.4,61.2,57.2,53.1,97,77,44,28.97,28.82,8,2,14,0.37
2013-5-11,62.4,55.7,48.7,61.0,48.1,37.8,96,77,53,28.88,28.79,10,3,18,0.09
2013-5-12,57.7,47.7,35.8,39.7,25.6,18.3,83,46,26,29.09,28.88,13,4,22,0.00
2013-5-13,60.4,45.7,29.5,32.2,20.7,14.5,83,41,22,29.18,29.06,12,3,17,0.00
2013-5-14,73.8,53.3,33.1,34.6,28.8,21.0,74,43,21,29.15,28.85,7,1,10,0.00
2013-5-15,90.9,72.0,55.2,54.6,45.4,33.9,70,42,21,28.85,28.73,9,2,13,0.00
2013-5-16,89.4,72.2,58.6,63.6,46.4,31.8,97,49,15,29.00,28.82,6,1,9,0.33
2013-5-17,91.2,70.5,54.9,61.3,50.2,38.0,93,56,18,29.12,28.97,5,1,7,0.00
2013-5-18,87.6,70.6,52.3,58.1,46.8,37.8,72,45,23,29.12,29.03,4,1,7,0.00
2013-5-19,90.3,73.4,59.9,64.0,57.0,52.1,95,60,29,29.09,28.97,0,0,0,0.00
2013-5-20,90.9,75.1,63.7,66.9,62.2,58.3,92,67,38,29.03,28.91,6,1,11,0.00
2013-5-21,92.8,77.6,66.7,68.7,60.5,51.1,98,61,27,28.97,28.82,7,2,12,0.00
2013-5-22,91.9,77.0,64.9,61.4,55.0,45.6,80,50,23,28.88,28.76,8,3,16,0.00
2013-5-23,82.4,65.8,45.7,61.9,53.5,38.6,89,67,30,29.00,28.79,14,4,20,0.08
2013-5-24,54.3,46.1,36.5,39.9,29.9,23.5,84,55,32,29.29,29.00,13,5,18,0.00
2013-5-25,70.3,50.7,31.6,40.5,28.0,21.4,91,49,19,29.32,29.23,11,2,14,0.00
2013-5-26,76.8,56.1,34.3,39.0,27.7,20.0,87,41,15,29.29,29.21,8,2,10,0.00
2013-5-27,69.1,55.1,42.4,46.6,37.3,28.4,70,53,33,29.26,29.06,4,1,8,0.00
2013-5-28,90.0,70.2,54.9,67.4,54.7,46.4,93,63,29,29.06,28.94,7,2,13,0.29
2013-5-29,93.6,79.2,67.8,57.0,51.3,42.9,65,40,20,29.12,29.00,7,3,14,0.00
2013-5-30,97.0,79.3,62.8,62.0,54.3,43.8,85,47,18,29.18,29.06,6,1,12,0.00
2013-5-31,94.8,76.7,61.0,66.2,56.7,45.4,94,58,20,29.12,28.97,11,2,17,0.04
2013-6-1,89.1,76.9,65.3,67.9,60.4,55.0,94,61,34,29.00,28.79,9,2,17,0.38
2013-6-2,83.8,73.3,66.6,67.0,57.1,46.6,98,62,30,28.91,28.76,8,3,14,1.16
2013-6-3,76.5,63.6,48.0,54.6,43.9,29.0,75,51,24,29.09,28.88,7,3,9,0.00
2013-6-4,83.1,62.6,40.6,45.9,36.8,31.2,88,45,19,29.15,29.09,8,2,8,0.00
2013-6-5,90.0,70.5,49.5,53.2,42.0,36.2,78,41,18,29.15,28.94,6,2,9,0.00
2013-6-6,72.0,65.3,57.9,66.9,62.1,46.0,98,90,47,28.94,28.79,8,2,10,0.87
2013-6-7,65.7,60.4,56.8,57.6,55.2,52.7,98,84,67,28.88,28.79,7,3,9,0.00
2013-6-8,82.8,66.9,57.2,55.9,49.4,41.9,90,59,25,29.09,28.88,5,1,7,0.00
2013-6-9,89.4,72.3,58.3,63.8,54.8,48.7,84,59,30,29.15,29.00,6,1,10,0.00
2013-6-10,79.7,69.7,62.4,69.6,63.0,55.8,98,81,46,29.00,28.79,7,1,12,0.99
2013-6-11,85.6,72.2,61.7,65.5,59.6,49.8,98,70,32,28.91,28.82,10,2,13,0.05
2013-6-12,90.1,76.8,62.6,68.8,61.4,54.1,93,62,32,28.94,28.76,5,1,8,0.00
2013-6-13,78.1,68.7,61.0,66.9,55.9,39.4,97,68,31,28.85,28.56,12,4,21,0.41
2013-6-14,80.8,65.8,54.9,57.7,50.4,43.5,93,61,31,29.09,28.85,8,2,11,0.00
2013-6-15,88.9,68.4,48.6,56.0,46.9,37.4,95,55,19,29.12,29.00,6,1,9,0.00
2013-6-16,83.1,70.4,62.8,67.6,60.8,55.1,98,74,43,29.03,28.91,6,2,13,0.50
2013-6-17,94.8,73.7,63.5,72.7,62.3,46.1,98,76,22,29.00,28.91,8,1,14,0.37
2013-6-18,86.9,72.3,61.9,67.9,59.0,47.3,98,68,31,29.00,28.88,6,2,12,0.00
2013-6-19,85.5,68.5,52.3,49.2,41.9,33.6,80,44,19,29.15,29.00,7,2,10,0.00
2013-6-20,90.9,71.5,50.7,54.9,45.2,37.5,94,48,17,29.23,29.15,6,1,8,0.00
2013-6-21,94.8,76.0,56.1,58.5,49.9,40.8,91,49,17,29.26,29.15,4,1,6,0.00
2013-6-22,97.3,79.3,61.5,63.2,57.4,47.7,92,54,20,29.18,29.06,6,1,10,0.00
2013-6-23,97.3,81.6,66.9,70.0,59.1,45.2,94,53,19,29.15,29.06,6,1,11,0.00
2013-6-24,97.3,80.7,64.6,65.6,57.1,47.8,90,49,21,29.15,29.03,6,1,9,0.00
2013-6-25,95.0,78.9,67.8,67.9,63.0,58.0,98,61,31,29.06,28.88,10,2,14,1.50
2013-6-26,92.3,76.0,66.9,74.4,66.8,61.9,98,77,39,28.97,28.82,7,2,11,1.24
2013-6-27,86.9,74.0,67.3,71.0,66.3,58.1,98,79,41,28.82,28.67,6,1,10,0.46
2013-6-28,91.2,72.4,63.5,72.9,63.1,47.5,98,76,32,28.67,28.56,12,2,19,0.37
2013-6-29,86.7,69.8,60.6,66.0,59.9,52.8,96,73,37,28.70,28.59,7,1,11,0.25
2013-6-30,89.8,72.1,62.1,67.8,62.1,53.0,98,76,32,28.88,28.70,6,1,10,0.17
2013-7-1,88.7,70.6,65.5,68.6,63.6,57.1,92,80,39,28.97,28.85,6,1,9,0.37
2013-7-2,92.7,76.6,65.8,68.0,62.3,54.0,98,67,30,29.06,28.94,5,1,7,0.00
2013-7-3,94.5,76.7,68.7,70.3,64.1,53.8,93,70,28,29.18,29.06,5,1,9,0.17
2013-7-4,86.9,74.7,69.3,70.8,65.8,58.3,98,76,44,29.21,29.15,4,1,8,0.04
2013-7-5,88.0,74.1,68.2,71.2,67.1,60.9,98,81,44,29.21,29.12,6,1,11,0.12
2013-7-6,95.4,77.9,68.9,73.0,66.1,57.1,98,72,31,29.18,29.03,5,1,8,0.00
2013-7-7,89.6,75.8,68.2,67.1,60.8,54.6,86,62,33,29.12,29.03,5,2,8,0.00
2013-7-8,93.9,76.3,62.8,67.5,61.1,56.1,93,63,29,29.15,29.06,6,2,8,0.17
2013-7-9,96.3,75.6,69.1,73.1,69.2,63.3,98,84,38,29.12,28.97,7,1,13,0.95
2013-7-10,96.1,75.8,66.0,76.1,70.0,61.3,98,85,47,29.03,28.82,19,2,34,1.04
2013-7-11,86.5,72.7,61.0,67.8,55.5,42.3,98,61,27,29.03,28.94,10,2,12,0.00
2013-7-12,84.6,69.9,57.6,60.3,54.5,47.1,97,62,31,29.12,29.03,6,2,11,0.00
2013-7-13,93.4,76.7,62.2,63.0,57.8,51.0,92,57,27,29.23,29.12,6,2,8,0.00
2013-7-14,98.8,81.7,66.7,70.8,61.7,54.1,94,57,26,29.29,29.21,5,1,10,0.00
2013-7-15,103.8,84.8,69.1,72.9,62.4,49.7,97,55,18,29.35,29.26,5,1,6,0.00
2013-7-16,100.4,82.9,70.7,72.9,66.7,56.0,93,63,26,29.35,29.26,6,1,8,0.00
2013-7-17,99.3,85.1,72.1,76.6,66.7,57.1,98,61,26,29.32,29.18,8,2,10,0.00
2013-7-18,101.1,85.6,72.7,74.6,66.3,57.5,93,58,26,29.23,29.06,6,1,10,0.00
2013-7-19,100.0,81.6,72.5,74.6,66.4,56.6,93,64,26,29.06,28.91,7,1,17,0.08
2013-7-20,90.9,76.7,70.7,70.7,64.8,55.1,91,69,32,28.97,28.85,6,2,8,0.12
2013-7-21,96.3,78.2,69.8,69.3,63.6,51.9,91,65,25,29.00,28.94,3,0,6,0.00
2013-7-22,77.7,71.3,67.6,72.6,67.4,64.3,98,88,71,28.97,28.79,4,0,8,1.04
2013-7-23,91.8,73.5,65.3,69.6,64.2,56.1,98,77,38,28.85,28.70,10,2,13,0.80
2013-7-24,81.1,68.7,57.7,66.7,51.4,41.7,98,59,28,29.00,28.79,8,2,10,0.00
2013-7-25,85.3,67.2,51.4,56.3,45.4,35.3,95,53,19,29.12,29.00,6,1,8,0.00
2013-7-26,90.3,71.9,52.7,58.5,47.6,38.1,94,51,18,29.12,29.00,5,1,9,0.00
2013-7-27,74.8,68.1,63.7,64.0,59.9,55.1,87,75,62,29.03,28.85,6,1,10,0.08
2013-7-28,77.2,67.0,57.4,62.9,48.8,35.1,97,58,23,29.03,28.85,7,1,10,0.00
2013-7-29,80.4,65.9,53.6,56.4,46.5,36.5,90,54,24,29.21,29.03,7,1,9,0.00
2013-7-30,87.8,69.3,52.3,58.7,49.2,39.3,94,57,20,29.23,29.15,4,1,6,0.00
2013-7-31,81.3,68.9,59.9,63.5,58.1,52.9,89,70,42,29.18,28.97,3,0,4,0.00
2013-8-1,88.3,74.1,64.8,67.3,56.9,43.0,98,61,24,28.97,28.88,8,2,11,0.08
2013-8-2,82.2,70.0,57.0,62.3,52.6,38.1,95,59,24,29.03,28.94,6,1,10,0.00
2013-8-3,88.7,73.0,59.9,66.0,53.4,36.6,95,57,21,29.03,28.94,9,2,15,0.41
2013-8-4,82.6,67.5,55.6,59.5,47.5,37.0,93,55,22,29.12,29.00,10,2,13,0.00
2013-8-5,86.9,67.3,52.2,58.5,47.1,37.3,92,55,19,29.12,29.03,4,0,6,0.00
2013-8-6,92.3,73.0,56.5,61.5,49.5,39.5,92,52,18,29.03,28.97,4,1,7,0.00
2013-8-7,87.6,71.9,62.4,71.5,62.1,55.4,93,73,42,29.00,28.91,7,1,10,0.54
2013-8-8,94.3,76.8,69.1,71.7,68.2,61.4,98,78,37,29.00,28.91,6,1,7,0.71
2013-8-9,86.5,72.9,63.9,70.8,63.1,48.5,98,77,31,29.06,28.91,6,2,9,0.21
2013-8-10,93.0,74.1,61.7,65.1,57.1,50.3,93,61,27,29.12,29.03,5,1,10,0.04
2013-8-11,93.0,73.9,62.2,61.5,56.3,48.3,83,59,28,29.15,29.03,7,1,9,0.04
2013-8-12,93.0,76.0,60.4,65.1,56.9,48.4,95,59,24,29.09,28.88,6,1,9,0.00
2013-8-13,82.9,71.1,55.4,66.4,53.6,37.5,91,58,30,29.00,28.82,10,3,17,0.00
2013-8-14,74.7,60.4,50.2,52.9,44.9,38.7,92,60,31,29.15,29.00,7,2,11,0.00
2013-8-15,84.2,64.4,46.9,58.1,42.8,31.8,93,55,16,29.18,29.12,5,1,7,0.00
2013-8-16,86.2,67.9,52.5,56.0,44.3,35.1,88,50,19,29.18,29.12,6,1,8,0.00
2013-8-17,87.6,70.4,55.4,56.5,46.5,37.3,86,49,19,29.23,29.18,6,1,8,0.00
2013-8-18,79.3,68.0,58.6,61.3,55.8,50.8,83,66,44,29.21,29.15,0,0,0,0.00
2013-8-19,90.7,73.1,63.0,63.6,55.7,41.3,92,62,20,29.15,29.09,0,0,0,0.00
2013-8-20,92.8,74.0,57.9,64.3,53.3,42.0,95,58,18,29.21,29.12,0,0,0,0.00
2013-8-21,94.5,74.4,59.5,66.6,56.9,44.7,94,61,20,29.21,29.09,0,0,0,0.00
2013-8-22,89.4,72.8,63.9,66.4,61.8,55.7,91,71,38,29.12,29.00,0,0,0,0.00
2013-8-23,92.8,75.3,63.0,70.3,57.2,40.8,98,61,18,29.18,29.00,0,0,0,0.17
2013-8-24,90.5,70.9,54.9,57.6,46.4,34.2,89,51,15,29.32,29.18,0,0,0,0.00
2013-8-25,92.5,71.6,54.0,59.8,49.0,39.4,89,53,17,29.35,29.23,0,0,0,0.00
2013-8-26,93.6,75.4,59.7,63.0,55.3,44.7,87,56,21,29.26,29.06,0,0,0,0.00
2013-8-27,85.1,74.8,70.2,70.9,66.1,61.9,90,75,49,29.09,28.94,0,0,0,0.08
2013-8-28,89.1,78.2,72.1,71.9,67.0,60.9,91,70,41,28.97,28.85,0,0,0,0.00
2013-8-29,93.9,77.6,68.2,68.1,61.5,49.8,92,64,25,29.06,28.97,0,0,0,0.00
2013-8-30,96.3,77.5,63.0,70.5,60.6,50.2,98,63,24,29.06,28.85,0,0,0,0.00
2013-8-31,93.4,79.5,70.7,67.7,61.9,53.5,89,59,29,28.91,28.73,0,0,0,0.00
2013-9-1,89.8,78.2,70.3,70.7,62.6,53.8,93,63,32,28.85,28.79,0,0,0,0.00
2013-9-2,93.2,74.4,62.4,69.9,62.4,51.7,97,71,27,28.88,28.76,0,0,0,0.21
2013-9-3,72.9,63.8,55.4,60.6,51.9,40.7,95,68,34,29.06,28.88,0,0,0,0.00
2013-9-4,87.1,67.5,51.8,60.8,49.0,40.6,98,60,21,29.12,29.06,0,0,0,0.00
2013-9-5,83.5,67.4,53.6,62.8,45.1,25.4,92,53,15,29.23,29.09,8,2,10,0.00
2013-9-6,83.7,63.0,45.1,53.8,38.4,26.9,89,50,14,29.26,29.12,6,1,8,0.00
2013-9-7,89.4,68.2,48.4,54.5,45.7,35.8,87,52,18,29.12,28.97,5,1,8,0.00
2013-9-8,87.1,71.4,60.6,62.5,55.4,48.7,86,59,33,29.09,28.94,4,1,4,0.00
2013-9-9,93.9,71.6,55.8,63.2,54.6,47.7,83,60,26,29.09,29.00,6,1,9,0.00
2013-9-10,99.0,82.8,70.5,69.3,63.2,56.8,81,56,26,29.15,29.06,5,1,8,0.00
2013-9-11,99.0,82.0,72.5,70.6,62.2,50.0,88,56,20,29.18,29.03,6,2,9,0.00
2013-9-12,75.7,70.4,61.5,69.5,63.6,54.4,92,79,62,29.03,28.85,6,1,9,0.41
2013-9-13,72.9,59.0,51.4,58.2,48.2,37.6,98,70,32,29.09,28.85,11,3,15,0.17
2013-9-14,76.1,58.3,44.6,48.6,36.9,27.3,90,52,18,29.18,29.06,5,2,6,0.00
2013-9-15,75.4,58.3,43.0,51.8,41.9,32.3,90,60,23,29.18,29.06,4,1,8,0.00
2013-9-16,78.1,62.4,50.4,58.4,47.3,34.8,93,63,22,29.32,29.09,7,2,13,0.04
2013-9-17,80.1,59.2,42.1,47.3,40.1,31.8,93,57,20,29.35,29.21,5,1,8,0.00
2013-9-18,83.5,62.8,46.8,56.9,46.8,41.7,89,61,24,29.23,29.09,4,1,8,0.00
2013-9-19,79.5,68.6,63.3,61.5,57.5,51.8,83,69,41,29.15,29.03,4,1,6,0.00
2013-9-20,89.6,74.9,66.0,66.2,61.8,53.8,90,67,32,29.03,28.82,5,1,9,0.00
2013-9-21,74.8,66.4,54.7,65.6,57.0,40.0,95,75,32,28.82,28.70,10,2,11,0.66
2013-9-22,69.1,55.8,48.0,53.2,41.8,30.6,98,65,26,29.03,28.82,8,2,11,0.04
2013-9-23,60.3,53.5,51.1,47.0,43.2,32.8,81,69,37,29.15,29.03,5,1,6,0.00
2013-9-24,54.5,50.7,47.3,41.7,41.2,40.5,77,70,59,28.97,28.97,1,0,2,0.00
2013-9-25,64.8,46.9,43.5,55.6,43.0,39.0,94,87,65,28.97,28.91,4,0,5,0.00
2013-9-26,60.3,57.9,56.8,37.5,36.1,32.3,48,44,35,29.12,29.06,2,0,3,0.00
2013-9-27,83.7,61.4,45.9,53.7,40.4,30.7,92,53,17,29.21,29.09,7,1,10,0.00
2013-9-28,87.1,63.1,46.4,56.1,43.7,35.5,91,57,18,29.21,29.12,4,1,6,0.00
2013-9-29,82.6,64.7,52.5,54.7,48.7,42.0,87,61,27,29.15,29.00,5,1,7,0.00
2013-9-30,68.5,63.7,57.6,58.3,54.5,49.4,89,73,51,29.06,28.97,4,1,8,0.00
2013-10-1,84.9,65.6,53.8,64.5,52.3,39.6,98,69,23,29.09,29.00,6,1,10,0.00
2013-10-2,89.6,68.7,55.8,64.5,53.9,44.6,98,66,23,29.12,29.03,5,1,6,0.00
2013-10-3,89.6,69.2,60.3,66.3,60.6,49.0,98,78,29,29.09,29.03,7,0,12,0.55
2013-10-4,89.1,70.8,63.3,71.7,62.7,49.9,98,80,29,29.09,29.06,7,1,11,0.00
2013-10-5,82.9,70.0,64.8,70.8,65.9,57.7,98,88,47,29.09,29.00,4,0,6,1.41
2013-10-6,87.3,73.0,61.3,74.6,61.9,50.4,98,73,34,29.00,28.76,8,1,14,0.00
2013-10-7,65.5,55.7,48.7,54.2,41.9,32.3,98,63,31,29.12,28.76,8,2,15,0.62
2013-10-8,75.2,55.6,41.7,52.8,38.0,28.7,96,60,21,29.26,29.12,6,1,8,0.00
2013-10-9,77.9,55.4,39.4,48.8,35.4,24.1,93,57,15,29.29,29.21,6,1,12,0.00
2013-10-10,76.5,54.9,41.4,46.8,36.9,29.8,88,58,20,29.21,29.09,6,1,6,0.00
2013-10-11,79.3,60.0,45.3,50.5,41.6,27.4,90,58,17,29.09,29.03,7,1,10,0.00
2013-10-12,85.1,64.9,51.1,57.3,50.3,43.4,91,64,24,29.12,29.06,5,1,8,0.00
2013-10-13,82.2,65.4,59.5,58.1,54.8,46.3,90,71,33,29.26,29.12,7,1,8,0.08
2013-10-14,75.6,62.0,50.7,55.5,42.1,32.1,87,53,22,29.32,29.21,7,2,10,0.00
2013-10-15,71.1,58.9,46.6,57.1,50.3,38.2,86,74,52,29.23,28.94,4,1,6,0.00
2013-10-16,66.4,62.5,53.1,61.3,55.4,44.2,90,78,57,28.97,28.85,6,2,10,0.08
2013-10-17,61.7,50.6,42.4,51.1,44.7,38.0,96,81,45,28.94,28.76,6,1,9,0.29
2013-10-18,69.8,52.9,41.7,44.2,35.7,26.3,91,58,22,29.00,28.91,7,2,12,0.00
2013-10-19,56.7,46.2,41.7,45.2,38.5,33.5,86,75,47,28.94,28.73,9,2,13,0.13
2013-10-20,65.8,48.8,36.1,38.9,31.2,24.8,88,56,23,29.00,28.91,6,2,13,0.00
2013-10-21,70.5,53.4,39.4,39.7,30.0,22.4,78,47,19,29.00,28.82,8,2,13,0.00
2013-10-22,57.4,46.1,35.4,45.5,26.6,15.4,84,51,22,28.97,28.82,10,2,17,0.17
2013-10-23,43.9,40.1,35.6,36.0,30.6,20.9,82,69,40,28.91,28.76,7,2,10,0.04
2013-10-24,52.2,39.0,30.2,30.5,24.0,15.3,78,57,27,29.12,28.91,11,2,14,0.00
2013-10-25,54.5,38.4,28.9,29.9,23.1,16.7,85,58,26,29.29,29.12,7,2,11,0.00
2013-10-26,50.7,41.7,34.0,24.7,18.3,14.6,54,40,24,29.21,28.85,10,3,17,0.00
2013-10-27,59.9,41.3,28.6,39.3,23.6,17.5,82,54,22,29.09,28.97,7,1,10,0.00
2013-10-28,67.5,43.0,27.3,40.8,23.8,15.2,83,55,17,29.26,29.06,5,1,8,0.00
2013-10-29,65.8,45.9,32.0,43.1,29.8,24.0,88,59,23,29.35,29.21,5,0,6,0.00
2013-10-30,73.0,54.9,41.0,51.1,39.1,32.7,83,59,25,29.21,29.06,4,1,5,0.00
2013-10-31,67.5,61.8,58.5,58.2,53.0,44.2,92,74,45,29.06,28.38,10,3,20,0.37
2013-11-1,66.4,57.8,52.0,58.7,39.0,27.4,90,52,26,28.70,28.32,12,3,24,0.33
2013-11-2,54.9,47.9,43.5,41.2,37.8,27.0,86,69,38,29.00,28.67,8,2,12,0.08
2013-11-3,57.0,42.9,33.1,37.7,27.1,16.8,92,58,25,29.41,29.00,7,2,10,0.00
2013-11-4,53.8,39.3,27.3,20.4,17.9,14.5,70,45,23,29.44,29.32,6,1,9,0.00
2013-11-5,64.2,50.5,39.9,31.0,24.5,18.7,69,38,24,29.41,29.26,4,1,6,0.00
2013-11-6,72.3,55.6,38.1,57.1,38.9,29.9,93,58,25,29.26,28.88,10,2,15,0.42
2013-11-7,58.5,44.6,39.6,56.1,28.4,13.5,92,56,28,29.12,28.91,11,4,21,0.25
2013-11-8,50.0,37.8,27.3,29.6,19.4,12.4,78,50,26,29.26,29.09,8,2,12,0.00
2013-11-9,61.3,45.6,27.7,27.5,20.7,15.5,77,43,19,29.23,28.91,11,3,19,0.00
2013-11-10,51.3,42.7,30.2,30.4,22.2,14.8,68,45,29,29.26,28.97,11,4,18,0.00
2013-11-11,48.9,39.4,27.0,35.7,22.9,16.4,89,56,28,29.26,29.00,10,3,17,0.08
2013-11-12,42.8,31.2,26.2,30.6,19.4,11.7,92,63,40,29.47,29.12,10,4,14,0.08
2013-11-13,44.4,32.7,24.8,14.1,9.9,5.9,53,39,28,29.50,29.29,7,3,11,0.04
2013-11-14,52.7,39.6,27.1,13.8,9.6,6.3,48,30,18,29.29,29.12,9,4,13,0.05
2013-11-15,60.1,45.8,32.5,19.4,12.3,4.4,41,27,17,29.15,29.09,9,2,14,0.00
2013-11-16,61.7,48.4,33.1,46.2,34.2,17.1,72,59,40,29.18,28.94,6,2,10,0.00
2013-11-17,61.5,58.4,53.1,56.7,49.2,28.6,91,72,39,28.97,28.50,11,6,23,0.54
2013-11-18,56.5,46.7,37.6,32.9,24.0,14.7,65,42,25,29.09,28.64,13,6,20,0.00
2013-11-19,45.9,35.2,25.0,16.2,14.2,10.9,65,43,28,29.35,29.09,10,3,13,0.00
2013-11-20,50.2,34.1,22.1,21.8,12.1,4.4,75,45,19,29.38,29.26,7,2,10,0.00
2013-11-21,59.4,45.6,35.8,30.7,21.0,8.4,68,39,26,29.35,29.18,5,1,7,0.08
2013-11-22,53.4,47.5,36.3,50.9,40.6,21.6,94,77,49,29.29,29.09,12,3,19,0.12
2013-11-23,40.3,29.8,20.3,23.9,14.8,0.0,81,55,29,29.35,29.18,13,4,17,0.00
2013-11-24,29.3,19.6,13.6,6.9,0.2,-4.3,65,43,30,29.50,29.35,12,4,18,0.00
2013-11-25,21.0,15.9,13.5,3.5,1.9,0.7,59,53,44,29.44,29.35,5,2,6,0.00
2013-11-29,46.4,28.0,20.5,12.1,8.5,4.2,66,46,22,29.59,29.53,3,0,5,0.00
2013-11-30,46.0,28.9,18.0,18.8,14.2,10.2,77,57,29,29.53,29.18,6,1,8,0.04
2013-12-1,43.5,34.7,24.6,26.6,20.7,17.9,82,59,38,29.18,28.94,6,1,8,0.17
2013-12-2,48.0,37.1,30.4,29.9,26.6,22.8,78,66,42,28.94,28.82,6,1,8,0.12
2013-12-3,58.1,42.8,34.3,34.5,30.9,27.7,84,66,35,28.88,28.82,6,1,7,0.00
2013-12-4,61.7,49.4,35.8,43.0,36.6,31.9,88,64,38,28.94,28.82,6,1,9,0.00
2013-12-5,63.7,53.9,35.4,57.7,42.2,24.6,92,66,39,29.09,28.79,10,4,13,0.25
2013-12-6,35.4,31.9,27.5,29.5,26.4,21.8,87,80,63,29.29,29.06,8,3,11,0.08
2013-12-7,36.9,24.2,13.1,22.7,8.5,1.3,82,53,30,29.56,29.26,8,3,12,0.00
2013-12-8,30.9,24.0,13.1,28.0,12.5,3.6,89,62,41,29.53,29.00,7,3,11,0.00
2013-12-9,36.1,33.0,27.1,35.6,24.2,12.4,98,72,50,29.15,28.91,7,3,13,0.08
2013-12-10,36.7,24.9,18.1,17.1,7.4,-3.7,76,50,23,29.23,29.03,8,3,12,0.00
2013-12-11,34.9,23.6,16.3,16.1,6.3,2.2,67,48,31,29.35,29.21,10,3,15,0.00
2013-12-12,28.9,17.3,6.6,5.6,-5.7,-12.2,54,37,23,29.44,29.23,8,3,14,0.00
2013-12-13,42.3,27.4,15.4,12.7,3.7,-6.5,51,37,26,29.23,29.15,6,2,8,0.05
2013-12-14,37.0,32.7,28.4,36.2,23.7,11.3,98,71,46,29.18,28.67,4,1,8,0.16
2013-12-15,36.3,26.7,19.9,35.8,14.9,1.7,98,62,43,29.03,28.67,11,5,25,0.05
2013-12-16,29.8,23.2,18.3,18.7,6.5,0.6,75,49,33,29.15,28.97,7,2,12,0.00
2013-12-17,38.5,30.1,25.7,27.8,17.9,8.6,85,63,32,29.06,28.91,6,2,11,0.04
2013-12-18,33.3,27.5,22.3,17.8,12.4,7.2,70,53,37,29.18,29.03,6,3,12,0.00
2013-12-19,52.7,38.6,29.5,25.3,15.4,7.6,61,40,26,29.06,28.97,7,2,11,0.20
2013-12-20,55.4,48.9,38.8,50.5,33.3,19.2,89,57,33,28.97,28.85,10,4,15,0.09
2013-12-21,65.5,58.5,55.4,61.5,55.0,47.1,97,88,69,28.88,28.56,13,4,17,0.99
2013-12-22,69.8,58.6,48.0,60.6,44.7,31.9,98,62,36,28.97,28.50,14,5,25,0.46
2013-12-23,48.4,36.1,29.3,37.4,21.4,8.7,85,56,41,29.29,28.97,9,4,13,0.04
2013-12-24,29.1,20.4,12.4,16.8,3.5,-3.0,69,48,38,29.50,29.23,9,4,19,0.00
2013-12-25,32.4,22.1,10.4,18.0,3.4,-4.6,65,46,28,29.47,29.18,8,2,10,0.00
2013-12-26,41.4,32.4,27.0,18.9,11.1,2.8,64,43,23,29.32,29.06,9,4,16,0.00
2013-12-27,49.6,37.3,28.9,19.2,14.3,8.1,54,39,27,29.32,29.23,6,2,9,0.00
2013-12-28,56.3,43.0,34.7,21.6,16.9,14.2,46,36,25,29.23,29.03,8,3,13,0.00
2013-12-29,43.0,41.2,36.3,39.1,26.8,12.1,86,60,30,29.03,28.73,12,2,18,0.25
2013-12-30,34.9,26.2,23.4,26.0,8.9,0.8,81,50,33,29.21,28.91,10,4,18,0.00
2013-12-31,28.0,24.0,21.6,14.5,7.4,-0.2,68,49,33,29.26,29.03,11,3,18,0.00
2014-1-1,37.9,28.1,23.5,16.4,13.3,10.2,62,54,40,29.26,29.06,5,2,6,0.00
2014-1-2,25.7,21.5,13.3,16.1,10.3,-0.3,73,62,52,29.06,28.76,11,4,20,0.00